createdAt,value
2019-04-10T08:15:06.929Z,99.4
2019-04-10T08:20:09.981Z,99
2019-04-10T08:25:11.310Z,98.7
2019-04-10T08:30:13.990Z,98.8
2019-04-10T08:35:17.346Z,96.7
2019-04-10T08:40:19.072Z,96.7
2019-04-10T08:45:21.151Z,95.7
2019-04-10T08:50:23.589Z,95.2
2019-04-10T08:55:26.162Z,94.2
2019-04-10T09:00:28.913Z,94
2019-04-10T09:05:31.098Z,93.6
2019-04-10T09:10:34.360Z,94.2
2019-04-10T09:15:36.096Z,93.2
2019-04-10T09:20:38.483Z,92.5
2019-04-10T09:25:41.554Z,91.5
2019-04-10T09:30:43.031Z,90.1
2019-04-10T09:35:45.454Z,88.9
2019-04-10T09:40:48.808Z,86.2
2019-04-10T09:45:51.457Z,82.9
2019-04-10T09:55:55.319Z,79.5
2019-04-10T10:00:58.463Z,77.8
2019-04-10T10:06:00.728Z,75.6
2019-04-10T10:11:02.537Z,74.4
2019-04-10T10:16:06.349Z,72.5
2019-04-10T10:21:08.215Z,71.1
2019-04-10T10:26:10.020Z,74.6
2019-04-10T10:31:12.279Z,71.8
2019-04-10T10:36:15.811Z,69.8
2019-04-10T10:41:18.096Z,71.7
2019-04-10T10:46:19.924Z,71.6
2019-04-10T10:51:22.542Z,65.9
2019-04-10T10:56:24.657Z,67.7
2019-04-10T11:01:27.522Z,63.8
2019-04-10T11:11:32.553Z,59.2
2019-04-10T11:16:34.271Z,57.9
2019-04-10T11:21:36.776Z,56.9
2019-04-10T11:26:39.969Z,57.9
2019-04-10T11:31:41.815Z,56.2
2019-04-10T11:36:46.049Z,54.6
2019-04-10T11:41:49.035Z,51.7
2019-04-10T11:46:49.376Z,53.1
2019-04-10T11:51:53.445Z,52.7
2019-04-10T11:56:57.923Z,50.2
2019-04-10T12:02:00.610Z,51.7
2019-04-10T12:07:01.335Z,50
2019-04-10T12:12:01.519Z,46.5
2019-04-10T12:17:03.743Z,46.1
2019-04-10T12:22:06.088Z,46.4
2019-04-10T12:27:09.156Z,48
2019-04-10T12:32:10.837Z,45.3
2019-04-10T12:37:13.352Z,42.5
2019-04-10T12:42:16.474Z,45
2019-04-10T12:47:18.170Z,44.8
2019-04-10T12:52:20.706Z,44.4
2019-04-10T12:57:23.180Z,41.6
2019-04-10T13:02:26.031Z,40.6
2019-04-10T13:07:28.084Z,40.1
2019-04-10T13:12:31.268Z,39.6
2019-04-10T13:17:33.159Z,38.4
2019-04-10T13:22:35.962Z,38.7
2019-04-10T13:27:37.706Z,37.6
2019-04-10T13:32:40.357Z,38.1
2019-04-10T13:37:43.447Z,39.4
2019-04-10T13:42:45.411Z,39.3
2019-04-10T13:47:48.465Z,36.8
2019-04-10T13:52:52.194Z,37.1
2019-04-10T13:57:52.982Z,34.7
2019-04-10T14:02:54.768Z,32.2
2019-04-10T14:07:57.697Z,32.8
2019-04-10T14:12:59.772Z,32.2
2019-04-10T14:18:02.131Z,31.8
2019-04-10T14:23:04.594Z,32.2
2019-04-10T14:28:07.046Z,31
2019-04-10T14:33:10.492Z,29.7
2019-04-10T14:38:12.022Z,31
2019-04-10T14:43:14.653Z,29.4
2019-04-10T14:48:18.172Z,29.2
2019-04-10T14:53:19.345Z,28.4
2019-04-10T14:58:27.379Z,27.8
2019-04-10T15:03:24.356Z,28
2019-04-10T15:08:27.869Z,27.6
2019-04-10T15:13:29.658Z,28
2019-04-10T15:18:31.382Z,27
2019-04-10T15:23:33.838Z,27.4
2019-04-10T15:28:36.315Z,27.5
2019-04-10T15:33:39.390Z,26.8
2019-04-10T15:38:42.140Z,27.2
2019-04-10T15:43:43.616Z,26.8
2019-04-10T15:53:49.389Z,27.2
2019-04-10T15:58:52.112Z,26.8
2019-04-10T16:03:54.421Z,27.5
2019-04-10T16:08:56.710Z,27.6
2019-04-10T16:13:59.027Z,27.6
2019-04-10T16:19:02.103Z,26.4
2019-04-10T16:24:03.178Z,26.9
2019-04-10T16:29:05.579Z,27.4
2019-04-10T16:34:09.162Z,27.6
2019-04-10T16:39:11.367Z,28.6
2019-04-10T16:44:13.079Z,29
2019-04-10T16:49:15.489Z,29.6
2019-04-10T16:54:20.027Z,30.3
2019-04-10T16:59:21.380Z,30.6
2019-04-10T17:04:23.052Z,30.8
2019-04-10T17:09:25.131Z,31.5
2019-04-10T17:14:27.558Z,31.9
2019-04-10T17:19:30.806Z,32.9
2019-04-10T17:24:33.448Z,33.1
2019-04-10T17:29:35.193Z,34.5
2019-04-10T17:34:37.325Z,35.3
2019-04-10T17:39:39.807Z,35.9
2019-04-10T17:44:42.280Z,36.1
2019-04-10T17:49:44.648Z,36.4
2019-04-10T17:54:47.154Z,37
2019-04-10T17:59:50.965Z,37
2019-04-10T18:09:54.422Z,38.1
2019-04-10T18:14:57.600Z,38.4
2019-04-10T18:19:59.245Z,38.9
2019-04-10T18:25:01.809Z,39.1
2019-04-10T18:30:04.486Z,39.1
2019-04-10T18:35:06.742Z,39.2
2019-04-10T18:40:09.029Z,39.3
2019-04-10T18:45:11.612Z,39.6
2019-04-10T18:55:16.474Z,40.2
2019-04-10T19:00:19.118Z,40.7
2019-04-10T19:05:21.435Z,40.8
2019-04-10T19:10:23.765Z,41
2019-04-10T19:15:26.197Z,41.3
2019-04-10T19:20:29.077Z,41.4
2019-04-10T19:25:31.012Z,41.8
2019-04-10T19:30:33.900Z,42
2019-04-10T19:35:37.166Z,42.2
2019-04-10T19:40:38.762Z,42.6
2019-04-10T19:45:41.858Z,42.9
2019-04-10T19:50:43.679Z,43.2
2019-04-10T19:55:46.473Z,43.4
